Alexandria, Missouri
Current Conditions -  °F | °C
As of 9:35 AM on Friday 24 Oct 2014 (Local Time) from KEOK Reporting Station
Moderate Fog Moderate Fog  
Wind Chill: 55°   Ceiling: 200
Heat Index: 55°   Visibility: 0mi
Dew Point: 55°   Wind: 3mph
Humidity: 100%   Direction: 170°S
Pressure: 30.08"   Gusts: NA
Location:  40.36°N, 91.46°W
Report Text: KEOK 241435Z AUTO 17003KT M1/4SM FG OVC002 13/13 A3008 RMK AO2
Loading
Personal Weather Stations






























Interactive Weather Map
Tropical Storm Tracking
New forecast layout! Learn more

10-Day Weather Forecast

Advertisements
Track Severe Weather on mobile